Kensett, IA (50448)

7:22 PM CDT on August 28, 2015 (GMT -0500)
Neverest Acres | | Change Station
CLOSE
Current Station
Personal Weather Station
Location: Grafton, IA
Elevation: 1224 ft
Nearby Weather Stations

Elev 1224 ft 43.33 °N, 93.08 °W | Updated 6 seconds ago

Overcast
Overcast
58.5 °F
Feels Like 58.5 °F
N
8.1
Wind Variable Wind from East
Gusts 18.0 mph

Today
High -- | Low -- °F
--% Chance of Precip.
Yesterday
High -- | Low -- °F
Precip. -- in
6:32 AM 7:55 PM
Waxing Gibbous, 99% visible
Pressure 29.96 in
Visibility 1.8 miles
Clouds Overcast 700 ft
Dew Point 58 °F
Humidity 97%
Rainfall 1.92 in
Snow Depth Not available.
UV 0.0 out of 12
Pollen 1.10 out of 12
Air Quality Not available.
Flu Activity Not available.
SPECI KMCW 290020Z AUTO 07013KT 1 3/4SM -RA BR OVC007 15/14 A2996 RMK AO2 CIG 004V008 P0001 T01500144
Pressure 29.96 in
Visibility 1.8 miles
Clouds Overcast 700 ft
Dew Point 58 °F
Humidity 97%
Rainfall 1.92 in
Snow Depth Not available.
UV 0.0 out of 12
Pollen 1.10 out of 12
Air Quality Not available.
Flu Activity Not available.
SPECI KMCW 290020Z AUTO 07013KT 1 3/4SM -RA BR OVC007 15/14 A2996 RMK AO2 CIG 004V008 P0001 T01500144

10-Day Weather Forecast

×

Almanac

Astronomy

Aug. 28, 2015 Rise Set
Actual Time
Civil Twilight
Nautical Twilight
Astronomical Twilight
Moon
Length of Visible Light
Length of Day
Tomorrow will be .
, % of the Moon is Illuminated

Today's Extremes

State Highs State Lows

Community

WunderPhotos

Upload Photos

1,850,545 photos uploaded!

WunderBlogs® & News

Nearby

Air Quality

  Air Quality AQ Index Pollutant
Not available.

Snow Depth

Station Depth Elevation

Earthquake Activity

City Distance Mag. Time & Date
Minimum magnitude displayed is 2.5.

Coastal Water Temperatures

Place Temperature

Stations

Nearby Weather Stations

Station Location Temp. Windchill Dew Point Humidity Wind Precip. Elev Updated Type